»·PEaware :: SWA5954 KBOI-KSLC

SWA5954 :: KBOI-KSLC

FLIGHT INFORMATION

Flight Status: Arrived
Operator:
Southwest Airlines
More flights by this operator :: More flights under this callsign
Pilot: Joshua M. (19482)
Aircraft: BOEING 737-800
(B738)
More flights by this aircraft type
Origin: KBOI Boise Air Terminal/Gowen
United States
Destination: KSLC Salt Lake City Intl
United States
More flights between these airports :: More routes between these airports
Route: +BOI3 ROARR BYI SKEES5
File this flight plan on PilotEdge
Remarks: Outdated FMC Default XPlane
Altitude:
(Current/Filed)
31,000ft
Speed:
(Current/Filed)
450kts
Departed: 12-Sep-18 08:56 AM
Arrived: 12-Sep-18 10:06 AM
Distance/Time
Traveled:
252nm/1:10
Distance/Time
To Go:
Arrived

Flight Plot

Page will automatically refresh every two minutes.

Flight plan parsing failed; only flown route is shown


Map Options




Map Legend


Flown Route
Filed Route
Departure Airport
Arrival Airport
Navaid (VOR, NDB)
Fix

Horizontal Profiles

Position Reports

Time Latitude Longitude Heading Altitude Ground
Speed
12-Sep-18 08:23 43.567993 -116.220230 237 2879ft 0kts
12-Sep-18 08:24 43.567993 -116.220230 237 2879ft 0kts
12-Sep-18 08:25 43.567993 -116.220230 237 2879ft 0kts
12-Sep-18 08:26 43.567993 -116.220230 237 2879ft 0kts
12-Sep-18 08:27 43.567993 -116.220230 237 2879ft 0kts
12-Sep-18 08:28 43.567993 -116.220230 237 2879ft 0kts
12-Sep-18 08:29 43.567993 -116.220230 237 2879ft 0kts
12-Sep-18 08:30 43.567993 -116.220230 237 2879ft 0kts
12-Sep-18 08:31 43.567993 -116.220230 237 2879ft 0kts
12-Sep-18 08:32 43.567993 -116.220230 237 2879ft 0kts
12-Sep-18 08:33 43.567993 -116.220230 237 2879ft 0kts
12-Sep-18 08:34 43.567993 -116.220230 237 2879ft 0kts
12-Sep-18 08:35 43.567993 -116.220230 237 2879ft 0kts
12-Sep-18 08:36 43.567993 -116.220230 237 2879ft 0kts
12-Sep-18 08:37 43.567993 -116.220230 237 2879ft 0kts
12-Sep-18 08:38 43.567993 -116.220230 237 2879ft 0kts
12-Sep-18 08:39 43.567993 -116.220230 237 2879ft 0kts
12-Sep-18 08:40 43.567994 -116.220229 237 2879ft 0kts
12-Sep-18 08:41 43.568093 -116.219915 244 2879ft 2kts
12-Sep-18 08:42 43.568243 -116.219457 238 2879ft 0kts
12-Sep-18 08:43 43.568243 -116.219457 238 2878ft 0kts
12-Sep-18 08:44 43.568243 -116.219457 238 2878ft 0kts
12-Sep-18 08:45 43.568243 -116.219457 238 2878ft 0kts
12-Sep-18 08:46 43.568203 -116.219467 160 2879ft 0kts
12-Sep-18 08:47 43.568187 -116.219320 94 2878ft 0kts
12-Sep-18 08:48 43.568187 -116.219320 94 2878ft 0kts
12-Sep-18 08:49 43.568187 -116.219320 94 2878ft 0kts
12-Sep-18 08:50 43.568160 -116.218842 97 2879ft 12kts
12-Sep-18 08:51 43.564855 -116.217190 162 2878ft 7kts
12-Sep-18 08:52 43.563223 -116.212888 115 2879ft 20kts
12-Sep-18 08:53 43.560766 -116.205764 114 2878ft 21kts
12-Sep-18 08:54 43.559999 -116.203468 116 2879ft 1kts
12-Sep-18 08:55 43.559515 -116.202512 158 2879ft 0kts
12-Sep-18 08:56 43.559183 -116.202550 203 2878ft 9kts
12-Sep-18 08:57 43.558870 -116.203634 298 2878ft 8kts
12-Sep-18 08:58 43.566696 -116.226529 296 2883ft 164kts
12-Sep-18 08:59 43.583260 -116.279654 291 3900ft 230kts
12-Sep-18 09:00 43.600851 -116.344320 290 6343ft 229kts
12-Sep-18 09:01 43.620609 -116.411777 298 8424ft 238kts
12-Sep-18 09:02 43.644623 -116.473397 295 10367ft 241kts
12-Sep-18 09:03 43.635848 -116.541185 220 12275ft 244kts
12-Sep-18 09:04 43.584833 -116.544423 150 14095ft 265kts
12-Sep-18 09:05 43.556831 -116.477317 112 15764ft 282kts
12-Sep-18 09:06 43.538722 -116.400089 112 17171ft 293kts
12-Sep-18 09:07 43.519488 -116.318407 112 18002ft 326kts
12-Sep-18 09:08 43.496825 -116.222498 112 18910ft 360kts
12-Sep-18 09:09 43.471715 -116.116622 112 19801ft 393kts
12-Sep-18 09:10 43.447156 -116.013162 113 21172ft 405kts
12-Sep-18 09:11 43.415719 -115.881360 114 22836ft 417kts
12-Sep-18 09:12 43.378992 -115.728393 115 24590ft 429kts
12-Sep-18 09:13 43.347322 -115.597314 115 25965ft 438kts
12-Sep-18 09:14 43.312776 -115.455078 116 27342ft 448kts
12-Sep-18 09:15 43.271573 -115.322950 132 28603ft 438kts
12-Sep-18 09:16 43.215168 -115.201150 133 29874ft 440kts
12-Sep-18 09:17 43.149072 -115.059573 134 30973ft 449kts
12-Sep-18 09:18 43.083731 -114.920614 134 30971ft 473kts
12-Sep-18 09:19 43.032188 -114.810914 134 30967ft 475kts
12-Sep-18 09:20 42.974115 -114.687828 133 30975ft 477kts
12-Sep-18 09:21 42.902630 -114.537285 132 30974ft 490kts
12-Sep-18 09:22 42.829315 -114.383290 132 30981ft 489kts
12-Sep-18 09:23 42.771393 -114.262113 132 30977ft 490kts
12-Sep-18 09:24 42.718460 -114.151789 132 30971ft 489kts
12-Sep-18 09:25 42.665514 -114.041831 132 30962ft 488kts
12-Sep-18 09:26 42.613552 -113.934361 132 30967ft 490kts
12-Sep-18 09:27 42.530105 -113.796144 145 30962ft 472kts
12-Sep-18 09:28 42.455867 -113.697178 145 30965ft 472kts
12-Sep-18 09:29 42.380981 -113.597558 145 30968ft 472kts
12-Sep-18 09:30 42.311170 -113.504905 145 30964ft 472kts
12-Sep-18 09:31 42.241564 -113.412629 145 30649ft 457kts
12-Sep-18 09:32 42.173347 -113.322283 146 29833ft 436kts
12-Sep-18 09:33 42.105178 -113.232712 145 29009ft 433kts
12-Sep-18 09:34 42.042588 -113.150624 145 28242ft 429kts
12-Sep-18 09:35 41.977754 -113.065802 145 27437ft 424kts
12-Sep-18 09:36 41.915963 -112.985221 144 26669ft 421kts
12-Sep-18 09:37 41.861280 -112.914078 144 26019ft 417kts
12-Sep-18 09:38 41.799691 -112.834156 144 25024ft 418kts
12-Sep-18 09:39 41.742225 -112.759761 143 23287ft 412kts
12-Sep-18 09:40 41.686291 -112.687509 143 21629ft 406kts
12-Sep-18 09:41 41.626390 -112.610235 142 19804ft 387kts
12-Sep-18 09:42 41.569371 -112.537010 142 18104ft 383kts
12-Sep-18 09:43 41.509549 -112.469158 156 16864ft 348kts
12-Sep-18 09:44 41.446068 -112.421764 157 16250ft 333kts
12-Sep-18 09:45 41.378013 -112.371290 156 14562ft 334kts
12-Sep-18 09:46 41.309122 -112.319955 156 13083ft 327kts
12-Sep-18 09:47 41.250928 -112.276582 155 11835ft 322kts
12-Sep-18 09:48 41.185163 -112.227617 155 11025ft 323kts
12-Sep-18 09:49 41.114510 -112.175074 155 11016ft 321kts
12-Sep-18 09:50 41.048351 -112.134111 170 11034ft 315kts
12-Sep-18 09:51 40.976974 -112.110959 170 11016ft 314kts
12-Sep-18 09:52 40.916055 -112.091508 170 11016ft 314kts
12-Sep-18 09:53 40.845452 -112.068959 170 11018ft 314kts
12-Sep-18 09:54 40.782996 -112.055564 180 11022ft 311kts
12-Sep-18 09:55 40.717891 -112.050894 182 11018ft 309kts
12-Sep-18 09:56 40.653287 -112.048763 183 10992ft 256kts
12-Sep-18 09:57 40.596665 -112.047024 184 10361ft 237kts
12-Sep-18 09:58 40.541202 -112.044991 174 8818ft 242kts
12-Sep-18 09:59 40.507083 -112.002282 103 8072ft 257kts
12-Sep-18 10:00 40.519746 -111.945729 38 8034ft 254kts
12-Sep-18 10:01 40.559610 -111.934053 333 8058ft 202kts
12-Sep-18 10:02 40.598456 -111.949217 343 7465ft 179kts
12-Sep-18 10:03 40.637625 -111.956714 348 6554ft 177kts
12-Sep-18 10:04 40.674985 -111.961558 350 6135ft 176kts
12-Sep-18 10:05 40.708420 -111.965412 350 5448ft 154kts
12-Sep-18 10:06 40.739184 -111.969035 351 4926ft 153kts
12-Sep-18 10:07 40.775331 -111.973212 350 4332ft 154kts
12-Sep-18 10:08 40.796905 -111.976507 266 4235ft 8kts
12-Sep-18 10:09 40.796887 -111.976987 269 4235ft 0kts
12-Sep-18 10:10 40.797113 -111.977818 264 4235ft 3kts
12-Sep-18 10:11 40.794618 -111.977557 173 4235ft 20kts
12-Sep-18 10:12 40.790092 -111.977395 191 4235ft 11kts

Navigation Log

Ident Type
Flight plan parsing failed, navigation log unavailable